createdAt,value
2023-01-11T00:01:09.241Z,31.95
2023-01-11T00:03:37.870Z,33.30
2023-01-11T00:06:08.759Z,38.92
2023-01-11T00:08:37.423Z,31.33
2023-01-11T00:11:06.897Z,31.60
2023-01-11T00:13:35.628Z,34.65
2023-01-11T00:16:09.029Z,35.15
2023-01-11T00:18:37.948Z,34.72
2023-01-11T00:21:07.785Z,37.40
2023-01-11T00:23:36.826Z,33.67
2023-01-11T00:26:06.223Z,40.25
2023-01-11T00:28:34.674Z,42.22
2023-01-11T00:31:03.498Z,42.58
2023-01-11T00:33:33.384Z,41.38
2023-01-11T00:36:02.173Z,39.13
2023-01-11T00:38:44.329Z,35.22
2023-01-11T00:41:36.831Z,37.67
2023-01-11T00:44:22.938Z,39.38
2023-01-11T00:47:09.443Z,37.00
2023-01-11T00:49:39.118Z,40.33
2023-01-11T00:52:09.976Z,37.20
2023-01-11T00:54:38.715Z,38.63
2023-01-11T00:57:07.649Z,36.70
2023-01-11T00:59:36.094Z,33.47
2023-01-11T01:02:05.095Z,32.88
2023-01-11T01:04:33.606Z,36.13
2023-01-11T01:07:03.540Z,33.22
2023-01-11T01:09:32.228Z,33.88
2023-01-11T01:12:02.030Z,32.55
2023-01-11T01:14:30.032Z,31.02
2023-01-11T01:17:02.472Z,32.05
2023-01-11T01:19:32.278Z,32.63
2023-01-11T01:22:01.154Z,33.42
2023-01-11T01:24:31.332Z,29.95
2023-01-11T01:27:00.157Z,32.43
2023-01-11T01:29:28.633Z,33.55
2023-01-11T01:31:57.227Z,30.98
2023-01-11T01:34:25.635Z,33.47
2023-01-11T01:36:54.182Z,29.50
2023-01-11T01:39:22.478Z,30.10
2023-01-11T01:41:52.646Z,28.00
2023-01-11T01:45:03.782Z,30.52
2023-01-11T01:47:37.767Z,31.63
2023-01-11T01:50:09.970Z,26.05
2023-01-11T01:52:38.664Z,27.15
2023-01-11T01:55:09.864Z,33.85
2023-01-11T01:57:41.707Z,35.33
2023-01-11T02:00:11.493Z,31.38
2023-01-11T02:02:40.812Z,35.60
2023-01-11T02:05:10.427Z,36.22
2023-01-11T02:07:40.549Z,34.35
2023-01-11T02:10:11.438Z,35.22
2023-01-11T02:12:44.762Z,42.22
2023-01-11T02:15:13.923Z,34.42
2023-01-11T02:17:42.418Z,41.03
2023-01-11T02:20:33.872Z,43.28
2023-01-11T02:23:13.686Z,44.00
2023-01-11T02:26:11.642Z,42.33
2023-01-11T02:28:46.391Z,37.67
2023-01-11T02:31:20.492Z,42.53
2023-01-11T02:33:58.769Z,39.80
2023-01-11T02:36:33.776Z,39.50
2023-01-11T02:39:07.079Z,40.05
2023-01-11T02:41:53.958Z,39.10
2023-01-11T02:44:46.587Z,38.67
2023-01-11T02:47:20.044Z,40.53
2023-01-11T02:49:52.549Z,43.92
2023-01-11T02:52:24.419Z,42.67
2023-01-11T02:54:57.013Z,40.95
2023-01-11T02:57:26.626Z,45.58
2023-01-11T02:59:58.199Z,41.20
2023-01-11T03:02:27.690Z,37.75
2023-01-11T03:04:56.392Z,38.67
2023-01-11T03:07:58.073Z,40.95
2023-01-11T03:10:35.936Z,38.78
2023-01-11T03:13:09.211Z,40.13
2023-01-11T03:16:14.684Z,44.10
2023-01-11T03:18:49.144Z,46.50
2023-01-11T03:21:25.314Z,44.05
2023-01-11T03:24:01.709Z,44.13
2023-01-11T03:26:36.626Z,43.67
2023-01-11T03:29:12.587Z,37.35
2023-01-11T03:31:47.181Z,37.25
2023-01-11T03:34:18.044Z,35.55
2023-01-11T03:36:51.068Z,36.67
2023-01-11T03:39:24.015Z,35.20
2023-01-11T03:41:57.420Z,42.75
2023-01-11T03:44:27.098Z,35.25
2023-01-11T03:47:01.033Z,37.10
2023-01-11T03:49:32.043Z,38.15
2023-01-11T03:52:02.077Z,37.85
2023-01-11T03:54:31.705Z,37.65
2023-01-11T03:57:05.498Z,37.03
2023-01-11T03:59:34.498Z,36.85
2023-01-11T04:02:04.480Z,36.35
2023-01-11T04:04:32.803Z,35.50
2023-01-11T04:07:01.443Z,38.45
2023-01-11T04:09:29.727Z,38.80
2023-01-11T04:11:58.242Z,43.90
2023-01-11T04:14:26.510Z,38.78
2023-01-11T04:16:55.018Z,31.05
2023-01-11T04:19:25.130Z,32.70
2023-01-11T04:21:53.618Z,39.42
2023-01-11T04:24:21.896Z,44.10
2023-01-11T04:26:50.405Z,40.72
2023-01-11T04:29:18.833Z,42.70
2023-01-11T04:31:47.401Z,37.47
2023-01-11T04:34:15.798Z,56.63
2023-01-11T04:36:45.797Z,55.47
2023-01-11T04:39:14.200Z,39.70
2023-01-11T04:42:00.227Z,44.67
2023-01-11T04:44:28.910Z,40.00
2023-01-11T04:46:57.522Z,38.30
2023-01-11T04:49:25.862Z,43.80
2023-01-11T04:51:55.838Z,43.75
2023-01-11T04:54:24.204Z,44.00
2023-01-11T04:56:52.719Z,39.50
2023-01-11T04:59:21.173Z,43.83
2023-01-11T05:01:49.658Z,50.63
2023-01-11T05:04:18.054Z,44.80
2023-01-11T05:06:47.264Z,41.22
2023-01-11T05:09:18.725Z,42.53
2023-01-11T05:11:47.323Z,43.92
2023-01-11T05:14:16.337Z,43.15
2023-01-11T05:16:45.183Z,42.13
2023-01-11T05:19:14.010Z,40.30
2023-01-11T05:21:43.052Z,37.00
2023-01-11T05:24:14.379Z,43.42
2023-01-11T05:26:45.851Z,41.60
2023-01-11T05:29:16.393Z,52.30
2023-01-11T05:31:45.256Z,51.13
2023-01-11T05:34:14.448Z,43.17
2023-01-11T05:36:43.713Z,49.05
2023-01-11T05:39:12.957Z,46.15
2023-01-11T05:41:41.478Z,42.80
2023-01-11T05:44:30.389Z,38.65
2023-01-11T05:46:59.096Z,45.38
2023-01-11T05:49:27.600Z,37.38
2023-01-11T05:51:56.058Z,43.40
2023-01-11T05:54:24.452Z,38.67
2023-01-11T05:56:53.135Z,36.60
2023-01-11T05:59:22.996Z,41.92
2023-01-11T06:01:54.612Z,55.78
2023-01-11T06:06:51.609Z,51.03
2023-01-11T06:09:20.011Z,44.75
2023-01-11T06:11:50.592Z,35.60
2023-01-11T06:14:18.894Z,45.60
2023-01-11T06:16:48.928Z,41.83
2023-01-11T06:19:17.362Z,36.70
2023-01-11T06:21:46.025Z,39.00
2023-01-11T06:24:14.454Z,41.15
2023-01-11T06:26:42.960Z,42.88
2023-01-11T06:29:11.645Z,45.92
2023-01-11T06:31:40.261Z,42.75
2023-01-11T06:34:10.337Z,41.30
2023-01-11T06:36:39.056Z,44.50
2023-01-11T06:39:07.619Z,46.40
2023-01-11T06:41:36.167Z,47.22
2023-01-11T06:44:04.435Z,44.42
2023-01-11T06:46:33.221Z,47.55
2023-01-11T06:49:03.194Z,47.63
2023-01-11T06:51:33.334Z,51.83
2023-01-11T06:54:01.673Z,54.97
2023-01-11T06:56:30.485Z,54.30
2023-01-11T06:58:58.874Z,52.30
2023-01-11T07:01:28.632Z,53.00
2023-01-11T07:03:57.207Z,57.88
2023-01-11T07:06:25.995Z,55.72
2023-01-11T07:08:55.712Z,54.63
2023-01-11T07:11:24.769Z,55.65
2023-01-11T07:13:53.017Z,59.45
2023-01-11T07:16:22.170Z,57.33
2023-01-11T07:18:50.475Z,59.10
2023-01-11T07:21:19.176Z,55.58
2023-01-11T07:23:48.853Z,52.88
2023-01-11T07:26:18.836Z,55.97
2023-01-11T07:28:47.267Z,56.95
2023-01-11T07:31:15.864Z,52.60
2023-01-11T07:33:44.128Z,51.83
2023-01-11T07:36:12.690Z,62.03
2023-01-11T07:38:41.056Z,52.10
2023-01-11T07:41:23.505Z,54.65
2023-01-11T07:43:53.103Z,53.85
2023-01-11T07:46:21.805Z,48.30
2023-01-11T07:48:50.231Z,44.88
2023-01-11T07:51:20.780Z,44.22
2023-01-11T07:53:49.123Z,56.63
2023-01-11T07:56:17.797Z,54.72
2023-01-11T07:58:46.082Z,50.03
2023-01-11T08:01:15.966Z,61.63
2023-01-11T08:03:44.468Z,52.00
2023-01-11T08:06:14.693Z,59.20
2023-01-11T08:08:42.941Z,51.97
2023-01-11T08:11:30.261Z,52.55
2023-01-11T08:14:15.969Z,63.08
2023-01-11T08:16:46.090Z,57.13
2023-01-11T08:19:14.356Z,53.65
2023-01-11T08:21:44.631Z,53.08
2023-01-11T08:24:12.815Z,57.65
2023-01-11T08:26:41.474Z,58.53
2023-01-11T08:29:10.009Z,48.33
2023-01-11T08:31:38.574Z,55.72
2023-01-11T08:34:08.319Z,54.45
2023-01-11T08:36:36.843Z,60.78
2023-01-11T08:39:05.320Z,61.97
2023-01-11T08:41:33.937Z,50.00
2023-01-11T08:44:02.455Z,51.92
2023-01-11T08:46:33.854Z,47.05
2023-01-11T08:51:33.026Z,55.15
2023-01-11T08:54:01.444Z,45.35
2023-01-11T08:56:30.109Z,49.00
2023-01-11T08:58:58.513Z,46.03
2023-01-11T09:01:27.361Z,41.95
2023-01-11T09:03:56.007Z,47.55
2023-01-11T09:06:24.703Z,44.88
2023-01-11T09:08:54.908Z,41.50
2023-01-11T09:11:41.053Z,45.67
2023-01-11T09:14:09.352Z,43.22
2023-01-11T09:16:37.953Z,40.70
2023-01-11T09:19:06.397Z,38.38
2023-01-11T09:21:35.109Z,37.58
2023-01-11T09:24:05.300Z,37.13
2023-01-11T09:26:33.898Z,42.77
2023-01-11T09:29:02.313Z,38.85
2023-01-11T09:31:31.089Z,35.58
2023-01-11T09:33:59.742Z,34.80
2023-01-11T09:36:29.231Z,37.00
2023-01-11T09:39:00.475Z,39.00
2023-01-11T09:41:43.104Z,35.15
2023-01-11T09:44:16.755Z,32.33
2023-01-11T09:46:48.467Z,39.95
2023-01-11T09:51:50.035Z,35.28
2023-01-11T09:54:22.055Z,37.30
2023-01-11T09:56:57.865Z,38.58
2023-01-11T09:59:31.301Z,43.33
2023-01-11T10:02:05.819Z,44.08
2023-01-11T10:04:42.999Z,36.40
2023-01-11T10:07:38.787Z,38.60
2023-01-11T10:18:34.381Z,28.55
2023-01-11T10:19:35.883Z,35.85
2023-01-11T10:22:10.515Z,29.60
2023-01-11T10:24:42.584Z,32.92
2023-01-11T10:27:22.260Z,32.35
2023-01-11T10:30:12.916Z,25.65
2023-01-11T10:33:06.081Z,36.15
2023-01-11T10:35:59.180Z,41.33
2023-01-11T10:38:42.875Z,44.17
2023-01-11T10:41:22.246Z,55.70
2023-01-11T10:44:00.711Z,32.72
2023-01-11T10:46:31.922Z,26.30
2023-01-11T10:49:05.651Z,23.33
2023-01-11T10:51:40.953Z,19.13
2023-01-11T10:54:15.626Z,20.10
2023-01-11T10:57:03.615Z,22.70
2023-01-11T10:59:52.068Z,35.88
2023-01-11T11:02:32.418Z,28.08
2023-01-11T11:05:10.386Z,20.23
2023-01-11T11:07:45.629Z,19.85
2023-01-11T11:10:19.008Z,22.85
2023-01-11T11:12:54.316Z,20.48
2023-01-11T11:15:25.931Z,22.23
2023-01-11T11:17:55.950Z,23.25
2023-01-11T11:20:26.508Z,21.48
2023-01-11T11:22:56.800Z,17.73
2023-01-11T11:25:30.439Z,17.25
2023-01-11T11:28:03.089Z,16.23
2023-01-11T11:30:33.728Z,15.95
2023-01-11T11:33:07.698Z,19.35
2023-01-11T11:35:39.450Z,20.35
2023-01-11T11:38:08.407Z,20.95
2023-01-11T11:40:38.079Z,23.60
2023-01-11T11:43:18.982Z,22.63
2023-01-11T11:45:55.394Z,17.63
2023-01-11T11:48:27.008Z,14.23
2023-01-11T11:50:57.403Z,13.20
2023-01-11T11:53:35.715Z,12.93
2023-01-11T11:56:10.654Z,18.92
2023-01-11T11:58:42.437Z,18.15
2023-01-11T12:03:56.074Z,20.13
2023-01-11T12:06:27.065Z,20.80
2023-01-11T12:11:30.496Z,20.70
2023-01-11T12:14:03.073Z,24.48
2023-01-11T12:16:33.041Z,24.50
2023-01-11T12:19:03.983Z,28.42
2023-01-11T12:21:33.322Z,30.10
2023-01-11T12:24:11.966Z,31.90
2023-01-11T12:26:47.300Z,33.42
2023-01-11T12:29:33.697Z,32.60
2023-01-11T12:32:47.646Z,32.47
2023-01-11T12:35:28.468Z,30.30
2023-01-11T12:38:17.108Z,30.17
2023-01-11T12:40:52.809Z,29.80
2023-01-11T12:43:34.690Z,31.67
2023-01-11T12:46:12.900Z,32.58
2023-01-11T12:48:57.081Z,32.53
2023-01-11T12:51:41.049Z,34.08
2023-01-11T12:54:32.316Z,30.73
2023-01-11T12:57:11.104Z,29.90
2023-01-11T13:00:18.582Z,29.30
2023-01-11T13:03:10.813Z,24.92
2023-01-11T13:05:49.396Z,21.38
2023-01-11T13:08:23.876Z,19.17
2023-01-11T13:11:02.546Z,21.10
2023-01-11T13:13:37.264Z,20.95
2023-01-11T13:16:10.955Z,13.85
2023-01-11T13:18:44.951Z,16.52
2023-01-11T13:21:20.469Z,14.05
2023-01-11T13:23:55.563Z,16.35
2023-01-11T13:26:27.719Z,15.00
2023-01-11T13:29:01.901Z,13.93
2023-01-11T13:31:31.659Z,9.85
2023-01-11T13:34:04.834Z,18.98
2023-01-11T13:36:39.099Z,17.80
2023-01-11T13:39:14.026Z,15.65
2023-01-11T13:41:45.639Z,14.88
2023-01-11T13:44:18.555Z,18.95
2023-01-11T13:47:03.788Z,13.43
2023-01-11T13:50:00.990Z,15.13
2023-01-11T13:52:44.591Z,13.55
2023-01-11T13:55:25.300Z,10.05
2023-01-11T13:57:57.450Z,16.85
2023-01-11T14:00:31.568Z,15.60
2023-01-11T14:03:06.917Z,16.80
2023-01-11T14:05:40.554Z,18.63
2023-01-11T14:08:22.609Z,18.23
2023-01-11T14:10:59.031Z,14.85
2023-01-11T14:14:09.719Z,16.23
2023-01-11T14:16:51.823Z,19.25
2023-01-11T14:19:24.184Z,21.85
2023-01-11T14:22:02.157Z,28.08
2023-01-11T14:24:31.965Z,16.52
2023-01-11T14:27:36.269Z,19.90
2023-01-11T14:30:36.780Z,20.42
2023-01-11T14:33:23.891Z,27.10
2023-01-11T14:36:01.308Z,30.17
2023-01-11T14:38:41.078Z,95.75
2023-01-11T14:41:28.424Z,41.63
2023-01-11T14:44:29.628Z,41.00
2023-01-11T14:47:22.875Z,89.53
2023-01-11T14:50:05.254Z,42.78
2023-01-11T14:52:40.153Z,67.40
2023-01-11T14:55:17.538Z,46.72
2023-01-11T14:58:01.580Z,49.10
2023-01-11T15:01:11.109Z,54.85
2023-01-11T15:03:50.792Z,46.40
2023-01-11T15:06:22.868Z,52.25
2023-01-11T15:08:54.930Z,46.88
2023-01-11T15:11:38.439Z,48.10
2023-01-11T15:14:19.656Z,50.47
2023-01-11T15:17:08.476Z,47.05
2023-01-11T15:19:38.573Z,48.75
2023-01-11T15:22:09.004Z,56.03
2023-01-11T15:24:39.945Z,64.32
2023-01-11T15:27:08.620Z,60.58
2023-01-11T15:29:42.339Z,65.20
2023-01-11T15:32:19.329Z,57.00
2023-01-11T15:34:49.268Z,105.40
2023-01-11T15:37:39.927Z,67.88
2023-01-11T15:40:16.709Z,58.38
2023-01-11T15:43:15.810Z,58.63
2023-01-11T15:46:24.769Z,60.35
2023-01-11T15:49:26.075Z,62.90
2023-01-11T15:52:14.776Z,61.90
2023-01-11T15:55:02.382Z,62.72
2023-01-11T15:57:57.285Z,61.78
2023-01-11T16:00:47.662Z,56.78
2023-01-11T16:03:54.728Z,57.22
2023-01-11T16:06:29.152Z,58.17
2023-01-11T16:09:06.670Z,64.18
2023-01-11T16:11:43.564Z,60.05
2023-01-11T16:14:35.782Z,57.42
2023-01-11T16:17:04.500Z,62.35
2023-01-11T16:19:34.596Z,64.10
2023-01-11T16:22:05.811Z,59.23
2023-01-11T16:24:37.438Z,62.70
2023-01-11T16:27:09.410Z,58.95
2023-01-11T16:29:39.385Z,65.38
2023-01-11T16:32:18.480Z,61.23
2023-01-11T16:34:50.565Z,66.53
2023-01-11T16:37:25.139Z,60.10
2023-01-11T16:39:56.428Z,60.80
2023-01-11T16:42:27.544Z,59.72
2023-01-11T16:44:59.142Z,58.50
2023-01-11T16:47:28.180Z,71.97
2023-01-11T16:50:20.781Z,58.28
2023-01-11T16:52:56.230Z,88.50
2023-01-11T16:55:30.606Z,105.70
2023-01-11T16:58:03.206Z,91.07
2023-01-11T17:00:36.389Z,90.28
2023-01-11T17:03:19.516Z,121.97
2023-01-11T17:06:02.130Z,68.47
2023-01-11T17:08:33.332Z,70.25
2023-01-11T17:11:05.285Z,70.70
2023-01-11T17:14:18.700Z,58.85
2023-01-11T17:16:50.110Z,57.05
2023-01-11T17:19:21.090Z,54.38
2023-01-11T17:21:52.184Z,47.35
2023-01-11T17:24:24.838Z,47.03
2023-01-11T17:26:54.661Z,47.13
2023-01-11T17:29:29.126Z,45.97
2023-01-11T17:32:00.420Z,43.35
2023-01-11T17:34:34.200Z,46.30
2023-01-11T17:37:04.096Z,48.50
2023-01-11T17:39:34.706Z,50.67
2023-01-11T17:42:22.251Z,51.70
2023-01-11T17:45:18.951Z,50.55
2023-01-11T17:47:51.076Z,54.03
2023-01-11T17:50:25.439Z,58.38
2023-01-11T17:53:02.875Z,58.20
2023-01-11T17:55:31.545Z,60.03
2023-01-11T17:58:21.893Z,62.17
2023-01-11T18:01:15.451Z,62.60
2023-01-11T18:03:46.464Z,61.33
2023-01-11T18:06:21.714Z,55.05
2023-01-11T18:08:52.755Z,55.78
2023-01-11T18:11:28.746Z,54.45
2023-01-11T18:13:58.848Z,54.03
2023-01-11T18:16:27.825Z,54.60
2023-01-11T18:18:58.052Z,56.67
2023-01-11T18:21:52.326Z,54.45
2023-01-11T18:24:33.241Z,53.08
2023-01-11T18:27:26.241Z,57.58
2023-01-11T18:29:55.679Z,58.15
2023-01-11T18:32:24.482Z,60.42
2023-01-11T18:34:55.764Z,62.00
2023-01-11T18:37:24.343Z,55.75
2023-01-11T18:39:53.977Z,55.85
2023-01-11T18:42:26.845Z,60.20
2023-01-11T18:44:55.192Z,59.55
2023-01-11T18:47:25.052Z,61.33
2023-01-11T18:49:54.985Z,56.83
2023-01-11T18:52:27.687Z,52.17
2023-01-11T18:54:56.605Z,51.42
2023-01-11T18:57:25.725Z,54.75
2023-01-11T18:59:54.196Z,47.78
2023-01-11T19:02:25.251Z,48.35
2023-01-11T19:04:56.229Z,49.40
2023-01-11T19:07:25.963Z,48.40
2023-01-11T19:09:55.709Z,46.95
2023-01-11T19:12:24.714Z,49.45
2023-01-11T19:14:53.235Z,48.30
2023-01-11T19:17:21.862Z,49.83
2023-01-11T19:19:50.238Z,52.35
2023-01-11T19:22:23.328Z,51.25
2023-01-11T19:24:54.708Z,52.08
2023-01-11T19:27:23.580Z,56.83
2023-01-11T19:29:52.966Z,61.47
2023-01-11T19:32:25.079Z,63.72
2023-01-11T19:34:58.070Z,58.50
2023-01-11T19:37:30.085Z,58.00
2023-01-11T19:39:58.574Z,54.30
2023-01-11T19:42:27.129Z,64.53
2023-01-11T19:44:56.065Z,59.30
2023-01-11T19:47:24.595Z,55.90
2023-01-11T19:49:56.515Z,57.00
2023-01-11T19:52:25.082Z,55.35
2023-01-11T19:54:55.205Z,52.05
2023-01-11T19:57:23.977Z,49.08
2023-01-11T19:59:52.241Z,42.00
2023-01-11T20:02:22.449Z,42.35
2023-01-11T20:04:53.688Z,41.70
2023-01-11T20:09:50.237Z,40.60
2023-01-11T20:12:20.489Z,38.60
2023-01-11T20:14:48.744Z,34.60
2023-01-11T20:17:21.146Z,34.63
2023-01-11T20:19:54.602Z,30.85
2023-01-11T20:22:23.531Z,30.80
2023-01-11T20:24:52.001Z,31.10
2023-01-11T20:27:22.073Z,29.35
2023-01-11T20:29:50.411Z,29.40
2023-01-11T20:32:39.567Z,29.98
2023-01-11T20:35:08.406Z,31.63
2023-01-11T20:37:37.022Z,29.95
2023-01-11T20:40:06.035Z,31.30
2023-01-11T20:42:35.940Z,31.67
2023-01-11T20:45:04.476Z,25.48
2023-01-11T20:47:32.983Z,31.08
2023-01-11T20:50:01.261Z,31.73
2023-01-11T20:52:29.883Z,31.27
2023-01-11T20:54:58.156Z,27.65
2023-01-11T20:57:29.483Z,35.05
2023-01-11T20:59:59.264Z,37.95
2023-01-11T21:02:27.964Z,36.40
2023-01-11T21:04:57.164Z,48.80
2023-01-11T21:07:25.797Z,36.63
2023-01-11T21:09:54.111Z,29.55
2023-01-11T21:12:22.572Z,24.33
2023-01-11T21:14:51.046Z,27.73
2023-01-11T21:17:21.154Z,20.00
2023-01-11T21:19:50.655Z,21.13
2023-01-11T21:22:19.517Z,20.38
2023-01-11T21:24:48.667Z,19.75
2023-01-11T21:27:17.269Z,17.50
2023-01-11T21:29:45.649Z,20.40
2023-01-11T21:32:14.286Z,16.48
2023-01-11T21:34:44.102Z,18.15
2023-01-11T21:37:12.662Z,18.92
2023-01-11T21:39:40.910Z,17.48
2023-01-11T21:42:09.493Z,17.05
2023-01-11T21:44:37.903Z,15.57
2023-01-11T21:47:07.483Z,16.73
2023-01-11T21:49:36.357Z,14.07
2023-01-11T21:52:06.434Z,14.65
2023-01-11T21:54:34.798Z,13.20
2023-01-11T21:57:03.411Z,13.30
2023-01-11T21:59:33.719Z,13.73
2023-01-11T22:02:02.316Z,17.98
2023-01-11T22:04:30.944Z,14.38
2023-01-11T22:07:00.211Z,14.90
2023-01-11T22:09:31.883Z,13.55
2023-01-11T22:12:00.481Z,15.43
2023-01-11T22:14:30.573Z,12.63
2023-01-11T22:16:59.140Z,13.35
2023-01-11T22:19:27.517Z,11.48
2023-01-11T22:21:56.130Z,11.70
2023-01-11T22:24:24.389Z,12.50
2023-01-11T22:26:54.314Z,10.52
2023-01-11T22:29:23.672Z,12.55
2023-01-11T22:31:55.628Z,11.88
2023-01-11T22:34:24.667Z,12.98
2023-01-11T22:36:54.368Z,9.63
2023-01-11T22:39:24.244Z,11.27
2023-01-11T22:41:54.450Z,9.77
2023-01-11T22:44:22.744Z,9.60
2023-01-11T22:46:51.353Z,9.95
2023-01-11T22:49:19.757Z,9.80
2023-01-11T22:51:48.739Z,11.18
2023-01-11T22:54:17.055Z,11.20
2023-01-11T22:56:45.734Z,10.52
2023-01-11T22:59:15.463Z,9.45
2023-01-11T23:01:44.193Z,9.57
2023-01-11T23:04:14.530Z,9.85
2023-01-11T23:06:44.295Z,10.07
2023-01-11T23:09:15.951Z,10.93
2023-01-11T23:12:03.300Z,8.75
2023-01-11T23:14:33.794Z,9.52
2023-01-11T23:17:05.784Z,9.95
2023-01-11T23:19:34.429Z,9.77
2023-01-11T23:22:03.148Z,8.68
2023-01-11T23:24:31.573Z,10.23
2023-01-11T23:27:00.474Z,8.88
2023-01-11T23:29:28.741Z,10.50
2023-01-11T23:31:58.872Z,10.15
2023-01-11T23:34:27.051Z,8.98
2023-01-11T23:36:55.935Z,7.63
2023-01-11T23:39:24.789Z,9.82
2023-01-11T23:42:10.933Z,10.10
2023-01-11T23:44:39.247Z,11.60
2023-01-11T23:47:22.031Z,10.68
2023-01-11T23:49:51.382Z,9.30
2023-01-11T23:52:21.243Z,9.23
2023-01-11T23:54:49.583Z,11.77
2023-01-11T23:57:18.810Z,10.38
2023-01-11T23:59:47.063Z,8.35
